Time;durP1;ratioP1;P1;durP2;ratioP2;P2;SDS_P1;SDS_P2;PMS_P1;PMS_P2;Temp;Humidity;BMP_temperature;BMP_pressure;BME280_temperature;BME280_humidity;BME280_pressure;Samples;Min_cycle;Max_cycle;Signal;HPM_P1;HPM_P2
2023/08/20 00:01:56;;;;;;;16.30;13.70;;;;;;;25.42;62.34;100923.50;105514;1260;62593;-52
2023/08/20 00:04:25;;;;;;;16.90;15.00;;;;;;;25.39;62.27;100925.04;105476;1254;63669;-50
2023/08/20 00:06:55;;;;;;;14.90;13.40;;;;;;;25.33;62.22;100921.77;105393;1254;60529;-52
2023/08/20 00:09:24;;;;;;;15.10;13.50;;;;;;;25.29;62.25;100922.97;105465;1256;60547;-53
2023/08/20 00:11:51;;;;;;;15.40;13.80;;;;;;;25.27;62.37;100922.21;105347;1256;64976;-52
2023/08/20 00:15:14;;;;;;;15.10;13.60;;;;;;;25.26;62.49;100921.60;105389;1257;63989;-53
2023/08/20 00:18:30;;;;;;;15.30;13.80;;;;;;;25.25;62.39;100920.91;105420;1253;63742;-52
2023/08/20 00:20:57;;;;;;;15.50;13.80;;;;;;;25.17;62.26;100925.16;105404;1258;60383;-53
2023/08/20 00:23:26;;;;;;;16.60;14.90;;;;;;;25.09;62.39;100929.27;105434;1255;60402;-53
2023/08/20 00:25:54;;;;;;;14.70;13.30;;;;;;;25.02;62.52;100928.27;105375;1254;63642;-53
2023/08/20 00:28:22;;;;;;;15.90;12.90;;;;;;;24.95;62.71;100927.31;105606;1254;61284;-53
2023/08/20 00:30:49;;;;;;;14.10;12.70;;;;;;;24.92;62.79;100921.66;105453;1254;63783;-52
2023/08/20 00:33:17;;;;;;;17.30;13.70;;;;;;;24.91;62.89;100918.44;105297;1261;61043;-53
2023/08/20 00:36:07;;;;;;;15.90;14.30;;;;;;;24.90;63.02;100918.39;105319;1251;60485;-54
2023/08/20 00:38:42;;;;;;;16.40;14.80;;;;;;;24.88;63.12;100917.89;105460;1260;73938;-52
2023/08/20 00:41:09;;;;;;;17.90;14.80;;;;;;;24.87;63.11;100921.20;105463;1255;61332;-52
2023/08/20 00:43:37;;;;;;;16.20;14.60;;;;;;;24.87;63.11;100918.72;105578;1257;63721;-53
2023/08/20 00:46:05;;;;;;;15.30;13.70;;;;;;;24.89;63.01;100918.48;105325;1255;60505;-53
2023/08/20 00:48:52;;;;;;;14.90;13.40;;;;;;;24.92;62.79;100919.35;105302;1256;60741;-51
2023/08/20 00:51:21;;;;;;;15.90;14.10;;;;;;;24.89;62.85;100921.50;105449;1257;65107;-52
2023/08/20 00:53:49;;;;;;;16.80;13.90;;;;;;;24.86;62.95;100920.50;105480;1260;63676;-52
2023/08/20 00:56:16;;;;;;;15.50;13.90;;;;;;;24.84;62.97;100923.35;105415;1257;65625;-52
2023/08/20 00:59:22;;;;;;;15.00;13.50;;;;;;;24.83;62.96;100921.23;105266;1251;60389;-53
2023/08/20 01:01:56;;;;;;;14.90;13.30;;;;;;;24.80;63.01;100921.92;105479;1257;60464;-54
2023/08/20 01:04:29;;;;;;;15.70;13.20;;;;;;;24.78;62.91;100912.15;105176;1255;64906;-52
2023/08/20 01:07:23;;;;;;;14.70;13.30;;;;;;;24.76;62.98;100913.23;105479;1259;60365;-52
2023/08/20 01:10:18;;;;;;;17.90;14.70;;;;;;;24.73;63.08;100910.56;104913;1260;63736;-53
2023/08/20 01:12:45;;;;;;;15.30;13.80;;;;;;;24.63;63.19;100909.10;105199;1260;60870;-51
2023/08/20 01:15:14;;;;;;;16.60;14.90;;;;;;;24.55;63.48;100909.96;105494;1257;60491;-51
2023/08/20 01:17:41;;;;;;;15.70;14.00;;;;;;;24.52;63.79;100907.70;105299;1257;73033;-51
2023/08/20 01:20:17;;;;;;;15.90;14.00;;;;;;;24.54;63.69;100907.81;105435;1251;61347;-52
2023/08/20 01:23:00;;;;;;;17.20;14.80;;;;;;;24.55;63.65;100908.98;105853;1253;63860;-53
2023/08/20 01:25:46;;;;;;;18.00;16.20;;;;;;;24.52;63.53;100910.37;105312;1251;62491;-54
2023/08/20 01:28:27;;;;;;;;;;;;;;;24.48;63.62;100905.13;105344;1257;60802;-54
2023/08/20 01:30:59;;;;;;;16.60;14.60;;;;;;;24.44;63.59;100899.46;105641;1257;64986;-54
2023/08/20 01:33:27;;;;;;;15.40;13.80;;;;;;;24.38;63.54;100898.11;107999;1251;61991;-53
2023/08/20 01:35:54;;;;;;;17.10;14.30;;;;;;;24.36;63.42;100896.57;105167;1254;62447;-52
2023/08/20 01:38:22;;;;;;;17.10;14.50;;;;;;;24.36;63.40;100896.58;105382;1254;60565;-54
2023/08/20 01:40:50;;;;;;;19.60;14.70;;;;;;;24.36;63.38;100898.15;105373;1254;60592;-54
2023/08/20 01:43:17;;;;;;;17.70;14.80;;;;;;;24.34;63.28;100900.25;105337;1257;64905;-52
2023/08/20 01:45:45;;;;;;;18.20;14.80;;;;;;;24.29;63.58;100900.30;105385;1257;60438;-52
2023/08/20 01:48:15;;;;;;;15.60;14.00;;;;;;;24.26;63.82;100900.51;105325;1252;62533;-52
2023/08/20 01:50:42;;;;;;;15.70;14.10;;;;;;;24.24;64.03;100895.61;105148;1251;309135;-54
2023/08/20 01:54:26;;;;;;;18.60;13.80;;;;;;;24.04;64.70;100897.41;102273;1294;600964;-55
2023/08/20 01:56:53;;;;;;;17.80;13.90;;;;;;;24.21;64.24;100897.87;104553;1266;59023;-56
2023/08/20 01:59:21;;;;;;;17.50;14.60;;;;;;;24.24;64.11;100896.19;104463;1265;59337;-55
2023/08/20 02:01:49;;;;;;;20.00;15.10;;;;;;;24.25;64.27;100898.89;104470;1267;62209;-54
2023/08/20 02:04:16;;;;;;;18.20;14.60;;;;;;;24.24;64.30;100900.25;104438;1266;61805;-53
2023/08/20 02:06:44;;;;;;;16.30;14.60;;;;;;;24.22;64.25;100899.45;104468;1266;64197;-54
2023/08/20 02:09:13;;;;;;;15.70;14.00;;;;;;;24.18;64.24;100902.63;104599;1264;244423;-54
2023/08/20 02:11:41;;;;;;;16.60;14.80;;;;;;;24.17;64.16;100902.52;105442;1256;59235;-56
2023/08/20 02:14:08;;;;;;;17.20;14.30;;;;;;;24.16;64.26;100902.39;105187;1256;62102;-56
2023/08/20 02:16:37;;;;;;;16.20;14.60;;;;;;;24.13;64.37;100903.30;105248;1256;61364;-56
2023/08/20 02:19:06;;;;;;;17.00;15.20;;;;;;;24.08;64.50;100904.60;105291;1257;63745;-56
2023/08/20 02:21:34;;;;;;;17.30;15.50;;;;;;;24.05;64.61;100902.40;105659;1255;59769;-56
2023/08/20 02:24:01;;;;;;;15.90;14.20;;;;;;;24.03;64.63;100898.66;105140;1260;59498;-56
2023/08/20 02:26:29;;;;;;;15.70;14.10;;;;;;;24.06;64.59;100900.13;105158;1262;64078;-56
2023/08/20 02:28:57;;;;;;;15.40;13.80;;;;;;;24.08;64.46;100904.05;105726;1257;61518;-56
2023/08/20 02:31:24;;;;;;;16.60;14.90;;;;;;;24.10;64.42;100905.84;105239;1256;63189;-55
2023/08/20 02:33:54;;;;;;;16.00;13.90;;;;;;;24.10;64.29;100906.14;105051;1261;59788;-55
2023/08/20 02:36:23;;;;;;;17.80;14.90;;;;;;;24.08;64.23;100908.23;105067;1256;59682;-56
2023/08/20 02:38:50;;;;;;;16.50;14.00;;;;;;;24.06;64.18;100905.67;105096;1262;64146;-56
2023/08/20 02:41:18;;;;;;;18.00;16.10;;;;;;;24.04;64.19;100908.59;105019;1259;60159;-58
2023/08/20 02:43:45;;;;;;;17.00;15.20;;;;;;;24.05;64.13;100908.39;105039;1257;64170;-56
2023/08/20 02:46:13;;;;;;;15.90;14.30;;;;;;;24.08;64.24;100908.61;105199;1257;59688;-56
2023/08/20 02:48:41;;;;;;;15.90;14.30;;;;;;;24.10;64.09;100906.27;106022;1258;59637;-54
2023/08/20 02:51:08;;;;;;;18.20;15.20;;;;;;;24.12;64.00;100905.69;105229;1260;64158;-55
2023/08/20 02:53:36;;;;;;;16.60;14.60;;;;;;;24.13;63.88;100907.04;105030;1256;61539;-53
2023/08/20 02:56:04;;;;;;;17.10;15.30;;;;;;;24.13;63.87;100907.82;105126;1256;63793;-57
2023/08/20 02:58:31;;;;;;;20.80;14.70;;;;;;;24.10;63.95;100904.32;105202;1256;59985;-54
2023/08/20 03:00:59;;;;;;;18.10;15.20;;;;;;;24.10;64.07;100905.93;105071;1257;59667;-54
2023/08/20 03:03:26;;;;;;;15.80;13.30;;;;;;;24.12;63.84;100904.08;104772;1256;64062;-54
2023/08/20 03:05:54;;;;;;;16.10;14.50;;;;;;;24.12;63.83;100906.06;105395;1257;61396;-54
2023/08/20 03:08:22;;;;;;;14.80;13.30;;;;;;;24.11;64.08;100906.92;105083;1256;71962;-54
2023/08/20 03:10:50;;;;;;;16.50;14.90;;;;;;;24.09;64.20;100909.45;105192;1257;59750;-55
2023/08/20 03:13:18;;;;;;;16.30;14.40;;;;;;;24.07;64.13;100906.36;105117;1260;59561;-55
2023/08/20 03:15:45;;;;;;;15.20;13.70;;;;;;;24.04;64.28;100906.23;104944;1257;62912;-55
2023/08/20 03:18:13;;;;;;;16.10;14.40;;;;;;;24.05;64.42;100907.40;105209;1259;60174;-56
2023/08/20 03:20:40;;;;;;;19.00;16.00;;;;;;;24.07;64.43;100907.49;105070;1256;63703;-55
2023/08/20 03:23:08;;;;;;;17.00;15.30;;;;;;;24.07;64.45;100907.96;105121;1257;59749;-52
2023/08/20 03:25:35;;;;;;;16.60;14.80;;;;;;;24.08;64.54;100907.92;104971;1256;59766;-51
2023/08/20 03:28:03;;;;;;;14.90;13.40;;;;;;;24.08;64.60;100906.55;105089;1256;62963;-49
2023/08/20 03:30:31;;;;;;;15.60;13.60;;;;;;;24.12;64.47;100903.25;105231;1259;60097;-51
2023/08/20 03:32:59;;;;;;;13.90;12.50;;;;;;;24.13;64.41;100905.79;105410;1256;62520;-54
2023/08/20 03:35:27;;;;;;;15.70;14.10;;;;;;;24.16;64.35;100909.39;105264;1254;60089;-50
2023/08/20 03:37:56;;;;;;;15.50;14.00;;;;;;;24.17;64.39;100908.57;105392;1259;59615;-52
2023/08/20 03:40:23;;;;;;;15.80;14.30;;;;;;;24.14;64.38;100904.21;105304;1254;62808;-51
2023/08/20 03:42:51;;;;;;;15.90;14.10;;;;;;;24.11;64.38;100905.32;108999;1256;61436;-51
2023/08/20 03:45:18;;;;;;;15.00;13.30;;;;;;;24.11;64.38;100909.13;109036;1256;62461;-52
2023/08/20 03:47:47;;;;;;;14.20;12.80;;;;;;;24.13;64.40;100908.84;105931;1256;59832;-55
2023/08/20 03:50:16;;;;;;;15.90;13.90;;;;;;;24.18;64.38;100912.17;108993;1255;57633;-56
2023/08/20 03:52:44;;;;;;;17.40;13.40;;;;;;;24.23;64.33;100905.91;108957;1256;62877;-56
2023/08/20 03:55:12;;;;;;;17.00;15.30;;;;;;;24.30;64.22;100906.48;109018;1253;61446;-56
2023/08/20 03:57:39;;;;;;;18.50;16.60;;;;;;;24.34;64.18;100902.23;105040;1256;63689;-55
2023/08/20 04:00:12;;;;;;;20.10;16.60;;;;;;;24.35;63.79;100899.13;105207;1258;59738;-55
2023/08/20 04:02:44;;;;;;;17.80;16.00;;;;;;;24.35;63.65;100899.84;105368;1259;59557;-55
2023/08/20 04:05:12;;;;;;;16.80;14.50;;;;;;;24.38;63.73;100898.64;107208;1256;64668;-55
2023/08/20 04:07:40;;;;;;;15.50;14.00;;;;;;;24.44;63.73;100897.55;105185;1256;61416;-55
2023/08/20 04:10:07;;;;;;;15.80;14.20;;;;;;;24.52;63.87;100897.08;105323;1256;62447;-54
2023/08/20 04:12:35;;;;;;;15.90;14.30;;;;;;;24.57;63.78;100890.09;105257;1256;59643;-55
2023/08/20 04:15:04;;;;;;;17.60;16.00;;;;;;;24.61;63.71;100890.64;105179;1254;59644;-52
2023/08/20 04:17:32;;;;;;;19.60;16.10;;;;;;;24.64;63.57;100887.66;105266;1255;64134;-52
2023/08/20 04:20:00;;;;;;;19.20;17.20;;;;;;;24.67;63.26;100889.03;105266;1257;60273;-53
2023/08/20 04:22:31;;;;;;;18.20;16.00;;;;;;;24.70;63.10;100889.74;105257;1259;63691;-51
2023/08/20 04:24:59;;;;;;;16.90;15.10;;;;;;;24.75;63.24;100887.88;105418;1257;59800;-52
2023/08/20 04:27:29;;;;;;;16.40;14.60;;;;;;;24.82;63.33;100889.48;105128;1261;59554;-51
2023/08/20 04:29:57;;;;;;;16.60;14.70;;;;;;;24.89;63.34;100886.47;105369;1255;63062;-51
2023/08/20 04:32:25;;;;;;;16.30;14.30;;;;;;;24.98;63.37;100885.48;105269;1259;61364;-52
2023/08/20 04:34:54;;;;;;;16.60;14.90;;;;;;;25.05;63.22;100882.91;105129;1257;62955;-53
2023/08/20 04:37:22;;;;;;;17.30;15.50;;;;;;;25.12;63.09;100884.24;105378;1256;59721;-52
2023/08/20 04:39:51;;;;;;;18.50;16.50;;;;;;;25.17;63.09;100882.66;105295;1259;59660;-56
2023/08/20 04:42:18;;;;;;;18.30;16.40;;;;;;;25.19;62.98;100880.14;105135;1257;64120;-55
2023/08/20 04:44:46;;;;;;;17.60;15.80;;;;;;;25.25;62.86;100877.20;106892;1254;70973;-55
2023/08/20 04:47:14;;;;;;;16.90;15.20;;;;;;;25.33;62.75;100873.49;105144;1255;63753;-54
2023/08/20 04:49:43;;;;;;;18.30;16.00;;;;;;;25.40;62.73;100873.61;105559;1253;59638;-53
2023/08/20 04:52:10;;;;;;;18.50;16.10;;;;;;;25.48;62.88;100873.60;105511;1253;59712;-52
2023/08/20 04:54:38;;;;;;;19.80;17.60;;;;;;;25.54;62.64;100872.43;105293;1257;64110;-55
2023/08/20 04:57:05;;;;;;;20.10;18.10;;;;;;;25.57;62.36;100872.67;105379;1253;61530;-52
2023/08/20 04:59:33;;;;;;;19.50;16.90;;;;;;;25.60;62.16;100876.60;105174;1256;63697;-52
2023/08/20 05:02:03;;;;;;;16.80;14.90;;;;;;;25.64;61.85;100878.00;105451;1255;62640;-54
2023/08/20 05:04:39;;;;;;;16.10;14.40;;;;;;;25.69;61.39;100878.95;104948;1258;59838;-56
2023/08/20 05:07:07;;;;;;;17.70;15.80;;;;;;;25.74;61.05;100877.95;105768;1252;64146;-55
2023/08/20 05:09:35;;;;;;;19.20;16.50;;;;;;;25.80;60.87;100880.41;105336;1257;60094;-56
2023/08/20 05:12:03;;;;;;;21.80;17.70;;;;;;;25.85;60.88;100881.36;105427;1253;63675;-55
2023/08/20 05:14:31;;;;;;;21.30;18.00;;;;;;;25.88;60.76;100877.77;105464;1258;59677;-55
2023/08/20 05:16:59;;;;;;;18.10;16.20;;;;;;;25.92;60.75;100874.62;105269;1259;59794;-55
2023/08/20 05:19:26;;;;;;;21.70;15.80;;;;;;;25.99;60.60;100877.65;105289;1259;64769;-55
2023/08/20 05:21:55;;;;;;;21.60;15.50;;;;;;;26.04;60.42;100876.84;105369;1254;62280;-55
2023/08/20 05:24:23;;;;;;;18.70;15.30;;;;;;;26.11;60.23;100878.18;105538;1253;63746;-56
2023/08/20 05:27:07;;;;;;;17.30;15.60;;;;;;;26.17;59.95;100875.18;105314;1259;59793;-54
2023/08/20 05:29:36;;;;;;;18.90;16.60;;;;;;;26.22;59.87;100869.58;105347;1253;59829;-54
2023/08/20 05:32:04;;;;;;;17.30;15.50;;;;;;;26.26;59.71;100869.33;105572;1258;64044;-55
2023/08/20 05:34:32;;;;;;;15.60;14.00;;;;;;;26.32;59.61;100866.69;105394;1253;61874;-55
2023/08/20 05:37:00;;;;;;;17.50;15.70;;;;;;;26.41;59.64;100866.55;105269;1258;63782;-54
2023/08/20 05:39:30;;;;;;;17.20;15.50;;;;;;;26.51;59.68;100867.45;105583;1254;59923;-54
2023/08/20 05:41:57;;;;;;;18.40;15.80;;;;;;;26.62;59.67;100868.52;106165;1256;59938;-55
2023/08/20 05:44:26;;;;;;;19.20;16.00;;;;;;;26.70;59.87;100866.66;105446;1253;63217;-55
2023/08/20 05:46:53;;;;;;;17.20;15.50;;;;;;;26.75;60.17;100865.70;105288;1259;61467;-55
2023/08/20 05:49:22;;;;;;;16.70;14.80;;;;;;;26.79;60.19;100862.39;105565;1253;64719;-55
2023/08/20 05:51:50;;;;;;;17.00;15.00;;;;;;;26.85;60.25;100860.52;105426;1253;59814;-55
2023/08/20 05:54:18;;;;;;;16.20;14.50;;;;;;;26.92;60.17;100856.70;105289;1253;59584;-55
2023/08/20 05:56:45;;;;;;;19.80;16.40;;;;;;;26.97;59.76;100855.52;105058;1254;64094;-55
2023/08/20 05:59:13;;;;;;;16.20;14.50;;;;;;;27.04;59.86;100853.69;105081;1259;60093;-55
2023/08/20 06:01:40;;;;;;;17.50;15.50;;;;;;;27.10;59.71;100848.36;105295;1253;63836;-54
2023/08/20 06:04:09;;;;;;;16.50;14.70;;;;;;;27.17;59.54;100851.24;106139;1258;60553;-55
2023/08/20 06:06:36;;;;;;;17.60;15.30;;;;;;;27.24;59.16;100851.77;105400;1253;60912;-55
2023/08/20 06:09:04;;;;;;;16.10;13.70;;;;;;;27.32;58.78;100847.35;105410;1254;63688;-55
2023/08/20 06:11:36;;;;;;;16.90;15.20;;;;;;;27.39;58.46;100847.17;105317;1257;61278;-55
2023/08/20 06:14:03;;;;;;;19.70;15.80;;;;;;;27.45;58.14;100848.57;105370;1257;64276;-54
2023/08/20 06:16:31;;;;;;;20.50;16.90;;;;;;;27.48;58.27;100848.00;105331;1257;60944;-55
2023/08/20 06:18:58;;;;;;;18.70;16.60;;;;;;;27.49;58.28;100847.77;105688;1253;60579;-55
2023/08/20 06:21:29;;;;;;;18.40;15.40;;;;;;;27.51;58.16;100848.96;105167;1258;65320;-57
2023/08/20 06:23:57;;;;;;;20.20;15.50;;;;;;;27.55;57.87;100848.51;105030;1253;61390;-54
2023/08/20 06:26:24;;;;;;;15.00;13.40;;;;;;;27.62;57.96;100850.92;105241;1257;63839;-55
2023/08/20 06:28:52;;;;;;;15.50;12.70;;;;;;;27.70;57.76;100853.80;105235;1253;60610;-54
2023/08/20 06:31:19;;;;;;;14.60;13.10;;;;;;;27.75;57.57;100850.44;105189;1252;60501;-53
2023/08/20 06:33:47;;;;;;;16.80;13.10;;;;;;;27.81;57.15;100850.92;105316;1258;64927;-54
2023/08/20 06:36:15;;;;;;;14.40;12.90;;;;;;;27.85;56.56;100848.18;105074;1253;60480;-54
2023/08/20 06:38:46;;;;;;;13.80;12.50;;;;;;;27.88;56.29;100847.14;108667;1256;64096;-56
2023/08/20 06:41:13;;;;;;;12.50;11.20;;;;;;;27.91;55.85;100847.19;105192;1253;62027;-55
2023/08/20 06:43:41;;;;;;;13.40;10.90;;;;;;;27.95;55.29;100843.75;105286;1253;60925;-54
2023/08/20 06:46:09;;;;;;;14.10;10.90;;;;;;;27.99;54.74;100840.67;105436;1257;64975;-54
2023/08/20 06:48:37;;;;;;;14.00;10.90;;;;;;;28.03;53.93;100836.38;105402;1253;61419;-54
2023/08/20 06:51:12;;;;;;;12.30;9.70;;;;;;;28.06;53.85;100838.16;106869;1254;63710;-55
2023/08/20 06:53:40;;;;;;;13.20;11.50;;;;;;;28.11;53.80;100839.64;104940;1253;60676;-54
2023/08/20 06:56:08;;;;;;;14.40;10.70;;;;;;;28.16;53.77;100842.44;105061;1259;60470;-55
2023/08/20 06:58:37;;;;;;;12.80;10.40;;;;;;;28.24;53.65;100845.74;105541;1259;65041;-53
2023/08/20 07:01:08;;;;;;;12.30;10.30;;;;;;;28.34;53.48;100844.16;105177;1256;61355;-54
2023/08/20 07:03:37;;;;;;;13.00;9.90;;;;;;;28.43;53.68;100845.27;108919;1253;64361;-55
2023/08/20 07:06:05;;;;;;;10.70;9.40;;;;;;;28.51;53.00;100843.59;105732;1256;60553;-55
2023/08/20 07:08:33;;;;;;;12.00;9.70;;;;;;;28.58;51.80;100842.50;105434;1252;60566;-54
2023/08/20 07:11:01;;;;;;;10.60;8.80;;;;;;;28.65;51.05;100840.61;105710;1251;63641;-55
2023/08/20 07:13:28;;;;;;;10.80;8.70;;;;;;;28.69;50.70;100840.72;105523;1253;60552;-55
2023/08/20 07:15:56;;;;;;;10.60;8.00;;;;;;;28.73;50.35;100838.49;105536;1253;62462;-54
2023/08/20 07:18:23;;;;;;;11.20;8.30;;;;;;;28.77;50.14;100838.20;105503;1254;60441;-56
2023/08/20 07:20:52;;;;;;;12.10;9.90;;;;;;;28.83;50.47;100840.84;105516;1254;60390;-56
2023/08/20 07:23:20;;;;;;;11.60;8.50;;;;;;;28.88;50.99;100838.08;105465;1254;65053;-56
2023/08/20 07:25:48;;;;;;;11.80;9.40;;;;;;;28.92;50.57;100839.39;105542;1257;60539;-56
2023/08/20 07:28:20;;;;;;;16.30;9.50;;;;;;;28.97;50.25;100840.25;105474;1258;63351;-56
2023/08/20 07:30:48;;;;;;;10.30;8.30;;;;;;;29.01;50.20;100839.65;105544;1251;60544;-54
2023/08/20 07:33:15;;;;;;;9.90;7.90;;;;;;;29.05;50.19;100835.95;105519;1253;60546;-56
2023/08/20 07:35:43;;;;;;;12.30;8.90;;;;;;;29.08;50.08;100838.16;105578;1258;64962;-54
2023/08/20 07:38:10;;;;;;;12.30;9.20;;;;;;;29.12;50.07;100842.13;105577;1256;60417;-56
2023/08/20 07:44:40;;;;;;;10.10;8.30;;;;;;;29.20;49.99;100843.31;105602;1259;60555;-56
2023/08/20 07:47:15;;;;;;;11.60;9.30;;;;;;;29.25;50.16;100843.93;105179;1253;60608;-56
2023/08/20 07:52:57;;;;;;;11.90;9.60;;;;;;;29.36;49.92;100840.98;106388;1259;62462;-93
2023/08/20 07:55:46;;;;;;;9.70;8.60;;;;;;;29.43;49.83;100835.05;106144;1262;63327;-91
2023/08/20 07:58:21;;;;;;;10.20;8.20;;;;;;;29.50;49.11;100833.19;106791;1257;60476;-91
2023/08/20 08:00:51;;;;;;;10.20;8.10;;;;;;;29.57;48.63;100834.55;105309;1258;73284;-56
2023/08/20 08:06:44;;;;;;;13.10;8.50;;;;;;;29.74;48.39;100828.34;104583;1257;60591;-55
2023/08/20 08:09:28;;;;;;;9.90;8.00;;;;;;;29.80;48.08;100822.81;105194;1259;62501;-56
2023/08/20 08:12:24;;;;;;;15.80;8.70;;;;;;;29.88;47.52;100817.09;104967;1257;60566;-55
2023/08/20 08:14:52;;;;;;;9.50;8.00;;;;;;;29.96;46.91;100812.47;105100;1257;60869;-55
2023/08/20 08:17:20;;;;;;;14.70;7.90;;;;;;;30.03;46.31;100813.36;105266;1257;65009;-56
2023/08/20 08:19:53;;;;;;;10.70;8.50;;;;;;;30.10;45.45;100815.67;105310;1255;61554;-56
2023/08/20 08:22:21;;;;;;;10.70;7.80;;;;;;;30.19;45.24;100816.27;105188;1256;63755;-55
2023/08/20 08:24:49;;;;;;;8.70;7.80;;;;;;;30.30;45.24;100815.33;105287;1256;60514;-54
2023/08/20 08:27:17;;;;;;;9.00;7.20;;;;;;;30.39;44.59;100815.42;105220;1257;61668;-53
2023/08/20 08:29:45;;;;;;;9.60;7.20;;;;;;;30.46;44.04;100814.30;105203;1262;64949;-53
2023/08/20 08:32:12;;;;;;;11.10;8.80;;;;;;;30.54;44.30;100811.98;105234;1257;61396;-56
2023/08/20 08:34:45;;;;;;;11.20;7.90;;;;;;;30.67;44.81;100810.40;104984;1257;63930;-54
2023/08/20 08:37:15;;;;;;;11.40;8.80;;;;;;;30.79;44.39;100809.29;105312;1260;60435;-54
2023/08/20 08:39:59;;;;;;;10.70;7.50;;;;;;;30.90;44.65;100808.39;105445;1257;61759;-56
2023/08/20 08:42:39;;;;;;;13.60;7.80;;;;;;;31.03;44.41;100805.83;104712;1257;63975;-54
2023/08/20 08:45:17;;;;;;;12.50;7.60;;;;;;;31.12;43.85;100801.46;104754;1257;61375;-55
2023/08/20 08:47:45;;;;;;;9.90;7.00;;;;;;;31.22;43.41;100797.84;105252;1262;62418;-57
2023/08/20 08:50:13;;;;;;;7.40;6.50;;;;;;;31.31;42.97;100795.41;105031;1256;60574;-56
2023/08/20 08:52:41;;;;;;;9.00;7.10;;;;;;;31.39;42.36;100792.70;105176;1259;60364;-55
2023/08/20 08:55:33;;;;;;;9.10;7.40;;;;;;;31.47;42.40;100796.06;105340;1257;63940;-55
2023/08/20 08:58:01;;;;;;;9.60;7.90;;;;;;;31.57;42.13;100798.23;105344;1261;63550;-56
2023/08/20 09:00:31;;;;;;;8.20;6.80;;;;;;;31.66;42.06;100793.61;105229;1258;62621;-56
2023/08/20 09:02:59;;;;;;;8.20;7.10;;;;;;;31.73;41.64;100795.48;105351;1262;60486;-57
2023/08/20 09:05:50;;;;;;;11.90;6.10;;;;;;;31.81;41.40;100800.23;105361;1259;60428;-56
2023/08/20 09:09:03;;;;;;;9.40;7.70;;;;;;;31.91;41.27;100801.73;105008;1262;64970;-56
2023/08/20 09:11:35;;;;;;;9.20;6.60;;;;;;;31.99;40.53;100803.13;105187;1257;60747;-56
2023/08/20 09:14:03;;;;;;;9.40;6.60;;;;;;;32.06;39.85;100802.11;105446;1257;62520;-55
2023/08/20 09:16:31;;;;;;;8.40;6.00;;;;;;;32.10;39.33;100804.55;105201;1257;60625;-54
2023/08/20 09:18:59;;;;;;;8.30;5.60;;;;;;;32.12;39.37;100805.52;105151;1262;60460;-55
2023/08/20 09:21:30;;;;;;;9.70;6.30;;;;;;;32.17;39.58;100804.35;104703;1257;64949;-55
2023/08/20 09:23:58;;;;;;;7.70;6.40;;;;;;;32.20;39.01;100804.61;105385;1256;61362;-55
2023/08/20 09:26:26;;;;;;;8.80;6.20;;;;;;;32.20;38.51;100802.81;105000;1259;63867;-56
2023/08/20 09:28:57;;;;;;;8.80;6.90;;;;;;;32.18;38.76;100797.67;105199;1257;60602;-55
2023/08/20 09:31:37;;;;;;;8.20;6.20;;;;;;;32.15;38.88;100794.92;105224;1260;60475;-56
2023/08/20 09:34:54;;;;;;;9.70;6.40;;;;;;;32.13;38.78;100797.64;105409;1259;64890;-56
2023/08/20 09:37:34;;;;;;;10.40;8.10;;;;;;;32.08;38.91;100799.08;104917;1257;62144;-57
2023/08/20 09:40:03;;;;;;;10.90;8.00;;;;;;;32.02;39.11;100793.94;105432;1257;63678;-59
2023/08/20 09:42:32;;;;;;;10.80;8.60;;;;;;;31.98;39.53;100792.92;105234;1258;60565;-57
2023/08/20 09:45:00;;;;;;;8.40;7.50;;;;;;;31.94;40.13;100792.99;105303;1262;60485;-57
2023/08/20 09:47:28;;;;;;;9.20;7.50;;;;;;;31.89;40.69;100794.08;105354;1257;65065;-55
2023/08/20 09:49:56;;;;;;;8.90;7.60;;;;;;;31.85;40.89;100788.97;105197;1263;60416;-56
2023/08/20 09:52:37;;;;;;;9.80;6.90;;;;;;;31.82;41.23;100789.38;104956;1257;63811;-55
2023/08/20 09:55:20;;;;;;;11.10;8.30;;;;;;;31.79;41.83;100787.71;104621;1257;60538;-56
2023/08/20 09:57:48;;;;;;;9.50;6.90;;;;;;;31.74;41.78;100780.48;105326;1257;60474;-54
2023/08/20 10:00:15;;;;;;;7.50;6.60;;;;;;;31.70;42.23;100784.45;105405;1257;63713;-54
2023/08/20 10:02:45;;;;;;;9.80;7.40;;;;;;;31.64;42.42;100786.03;105352;1257;61407;-54
2023/08/20 10:05:28;;;;;;;8.00;7.20;;;;;;;31.58;43.26;100781.55;105312;1257;63719;-55
2023/08/20 10:07:56;;;;;;;7.30;6.10;;;;;;;31.53;42.97;100782.67;105259;1257;60661;-53
2023/08/20 10:10:47;;;;;;;10.10;6.60;;;;;;;31.50;43.10;100784.24;105571;1261;60461;-55
2023/08/20 10:13:22;;;;;;;9.60;6.80;;;;;;;31.49;43.97;100781.84;104981;1262;64941;-55
2023/08/20 10:15:59;;;;;;;10.30;7.30;;;;;;;31.51;44.08;100779.98;105410;1259;61355;-55
2023/08/20 10:19:03;;;;;;;9.30;7.10;;;;;;;31.55;43.13;100778.95;105228;1260;63778;-55
2023/08/20 10:21:30;;;;;;;9.50;7.30;;;;;;;31.61;42.39;100776.09;105063;1257;60541;-55
2023/08/20 10:24:05;;;;;;;11.00;7.10;;;;;;;31.66;42.31;100773.20;105321;1257;60342;-55
2023/08/20 10:26:34;;;;;;;8.10;6.70;;;;;;;31.73;42.72;100767.36;105311;1257;63744;-56
2023/08/20 10:29:37;;;;;;;10.50;6.80;;;;;;;31.82;40.68;100765.02;105515;1259;61688;-54
2023/08/20 10:32:14;;;;;;;9.20;6.60;;;;;;;31.94;39.19;100764.98;105528;1257;63870;-55
2023/08/20 10:34:50;;;;;;;10.10;6.40;;;;;;;32.06;39.71;100761.35;105207;1257;60658;-54
2023/08/20 10:37:27;;;;;;;13.90;7.80;;;;;;;32.17;40.45;100759.34;105255;1262;60528;-56
2023/08/20 10:39:58;;;;;;;8.50;6.90;;;;;;;32.28;40.04;100751.88;105323;1256;64967;-55
2023/08/20 10:42:26;;;;;;;11.40;7.30;;;;;;;32.37;39.42;100750.91;105229;1257;61405;-55
2023/08/20 10:44:59;;;;;;;10.80;7.40;;;;;;;32.46;39.13;100747.88;105275;1261;63674;-55
2023/08/20 10:47:43;;;;;;;9.30;7.10;;;;;;;32.54;38.40;100743.20;105440;1259;61175;-57
2023/08/20 10:50:12;;;;;;;11.20;6.70;;;;;;;32.63;37.86;100742.38;105376;1259;60366;-56
2023/08/20 10:52:50;;;;;;;9.20;7.50;;;;;;;32.70;38.22;100741.05;105365;1263;64957;-56
2023/08/20 10:55:22;;;;;;;11.20;6.70;;;;;;;32.79;38.38;100735.94;105305;1261;61446;-56
2023/08/20 10:57:56;;;;;;;9.60;7.60;;;;;;;32.88;38.35;100732.12;105371;1257;63730;-55
2023/08/20 11:00:24;;;;;;;8.10;6.60;;;;;;;32.99;37.81;100730.11;105130;1262;60567;-55
2023/08/20 11:02:52;;;;;;;11.90;7.40;;;;;;;33.09;37.26;100724.61;106296;1260;60490;-56
2023/08/20 11:05:21;;;;;;;7.90;6.70;;;;;;;33.18;37.69;100720.81;105135;1260;64974;-57
2023/08/20 11:07:49;;;;;;;8.10;7.30;;;;;;;33.30;37.50;100718.40;105227;1263;62174;-56
2023/08/20 11:10:16;;;;;;;8.70;7.40;;;;;;;33.42;37.27;100718.33;105269;1260;63771;-58
2023/08/20 11:12:47;;;;;;;9.10;7.20;;;;;;;33.53;37.09;100716.35;105286;1257;60564;-56
2023/08/20 11:15:15;;;;;;;11.90;7.00;;;;;;;33.61;36.62;100710.25;105339;1259;60567;-57
2023/08/20 11:17:44;;;;;;;10.00;7.30;;;;;;;33.71;36.75;100708.67;105129;1262;64967;-57
2023/08/20 11:24:08;;;;;;;10.90;6.90;;;;;;;33.82;35.58;100697.66;104975;1257;62746;-57
2023/08/20 11:26:40;;;;;;;9.10;6.00;;;;;;;33.83;35.41;100694.02;105225;1262;60534;-56
2023/08/20 11:29:20;;;;;;;9.80;7.10;;;;;;;33.81;35.66;100689.38;105362;1262;61019;-58
2023/08/20 11:31:48;;;;;;;12.10;6.40;;;;;;;33.78;35.16;100691.45;105230;1263;63703;-57
2023/08/20 11:34:23;;;;;;;9.40;6.60;;;;;;;33.77;35.29;100689.81;105304;1257;61388;-57
2023/08/20 11:36:59;;;;;;;7.90;6.70;;;;;;;33.80;35.76;100686.31;104914;1259;64325;-58
2023/08/20 11:39:29;;;;;;;10.10;6.80;;;;;;;33.80;36.12;100680.75;104772;1260;60653;-56
2023/08/20 11:41:56;;;;;;;8.30;6.80;;;;;;;33.79;35.89;100675.63;105254;1262;60553;-57